Time;durP1;ratioP1;P1;durP2;ratioP2;P2;SDS_P1;SDS_P2;PMS_P1;PMS_P2;Temp;Humidity;BMP_temperature;BMP_pressure;BME280_temperature;BME280_humidity;BME280_pressure;Samples;Min_cycle;Max_cycle;Signal;HPM_P1;HPM_P2
2022/09/05 00:00:01;;;;;;;12.70;11.50;;;16.90;99.90;;;;;;5084877;28;20462;-68
2022/09/05 00:02:38;;;;;;;16.50;12.03;;;16.80;99.90;;;;;;5086915;28;21091;-68
2022/09/05 00:05:37;;;;;;;15.20;11.13;;;16.80;99.90;;;;;;5088650;28;20458;-67
2022/09/05 00:08:12;;;;;;;13.30;12.00;;;16.80;99.90;;;;;;5092435;28;20447;-68
2022/09/05 00:10:48;;;;;;;14.53;11.57;;;16.80;99.90;;;;;;5085961;28;20458;-68
2022/09/05 00:13:22;;;;;;;16.47;11.90;;;16.80;99.90;;;;;;5086898;28;20524;-68
2022/09/05 00:16:04;;;;;;;21.03;11.97;;;16.70;99.90;;;;;;5089816;28;20492;-67
2022/09/05 00:18:49;;;;;;;25.10;12.90;;;16.70;99.90;;;;;;5086325;28;20454;-68
2022/09/05 00:21:26;;;;;;;15.60;12.87;;;16.70;99.90;;;;;;5088678;28;20477;-67
2022/09/05 00:24:06;;;;;;;19.87;11.30;;;16.60;99.90;;;;;;5085294;28;20453;-67
2022/09/05 00:26:50;;;;;;;20.20;12.50;;;16.60;99.90;;;;;;5077402;28;20474;-68
2022/09/05 00:29:26;;;;;;;13.33;11.97;;;16.70;99.90;;;;;;5081075;28;20470;-67
2022/09/05 00:32:03;;;;;;;14.20;12.60;;;16.70;99.90;;;;;;5081605;28;20833;-67
2022/09/05 00:34:55;;;;;;;23.47;12.40;;;16.70;99.90;;;;;;5081740;28;20462;-68
2022/09/05 00:37:32;;;;;;;14.10;11.90;;;16.70;99.90;;;;;;5084995;28;20992;-68
2022/09/05 00:40:15;;;;;;;12.30;11.27;;;16.70;99.90;;;;;;5087641;28;20471;-67
2022/09/05 00:42:44;;;;;;;16.43;11.53;;;16.50;99.90;;;;;;5089391;28;20931;-68
2022/09/05 00:45:16;;;;;;;20.90;11.77;;;16.40;99.90;;;;;;5083550;28;20532;-67
2022/09/05 00:47:47;;;;;;;25.30;13.67;;;16.20;99.90;;;;;;5082917;28;20454;-67
2022/09/05 00:50:20;;;;;;;24.83;12.47;;;16.00;99.90;;;;;;5082479;28;20458;-67
2022/09/05 00:52:56;;;;;;;13.63;12.23;;;15.90;99.90;;;;;;5087207;28;20534;-68
2022/09/05 00:55:29;;;;;;;13.33;10.83;;;15.90;99.90;;;;;;5078874;28;20461;-67
2022/09/05 00:58:15;;;;;;;11.97;10.60;;;16.00;99.90;;;;;;5081652;28;20461;-68
2022/09/05 01:00:51;;;;;;;11.00;10.20;;;15.90;99.90;;;;;;5082676;28;20478;-67
2022/09/05 01:03:41;;;;;;;13.93;10.67;;;15.90;99.90;;;;;;5082914;28;20463;-68
2022/09/05 01:06:21;;;;;;;10.83;10.03;;;15.90;99.90;;;;;;5078401;28;20959;-67
2022/09/05 01:09:18;;;;;;;15.00;11.20;;;15.90;99.90;;;;;;5082600;28;20840;-68
2022/09/05 01:12:02;;;;;;;11.77;10.90;;;15.90;99.90;;;;;;5078130;28;20507;-68
2022/09/05 01:14:53;;;;;;;11.30;10.30;;;15.80;99.90;;;;;;5090669;28;20453;-67
2022/09/05 01:17:46;;;;;;;11.53;10.50;;;15.70;99.90;;;;;;5089099;28;20824;-68
2022/09/05 01:20:28;;;;;;;15.07;11.30;;;15.90;99.90;;;;;;5069189;28;21013;-67
2022/09/05 01:23:16;;;;;;;14.90;10.77;;;15.90;99.90;;;;;;5083562;28;20457;-68
2022/09/05 01:26:08;;;;;;;16.63;10.47;;;15.90;99.90;;;;;;5090887;28;20964;-67
2022/09/05 01:28:41;;;;;;;12.57;11.60;;;15.80;99.90;;;;;;5088096;28;20470;-67
2022/09/05 01:31:15;;;;;;;14.93;11.30;;;15.80;99.90;;;;;;5083840;28;20462;-68
2022/09/05 01:33:49;;;;;;;12.93;11.63;;;15.80;99.90;;;;;;5086609;28;20546;-67
2022/09/05 01:36:31;;;;;;;12.93;11.60;;;15.80;99.90;;;;;;5087602;28;20508;-68
2022/09/05 01:39:08;;;;;;;17.27;11.93;;;15.80;99.90;;;;;;5080204;28;20445;-67
2022/09/05 01:41:43;;;;;;;16.67;11.03;;;15.80;99.90;;;;;;5081978;28;20460;-67
2022/09/05 01:44:31;;;;;;;12.23;10.93;;;15.80;99.90;;;;;;5085420;28;20482;-68
2022/09/05 01:47:15;;;;;;;12.43;11.20;;;15.80;99.90;;;;;;5083075;28;20652;-68
2022/09/05 01:49:56;;;;;;;17.23;12.20;;;15.80;99.90;;;;;;5083332;28;20978;-67
2022/09/05 01:52:29;;;;;;;13.57;11.97;;;15.70;99.90;;;;;;5083193;28;20497;-67
2022/09/05 01:55:19;;;;;;;13.73;12.13;;;15.70;99.90;;;;;;5087859;28;20460;-68
2022/09/05 01:57:50;;;;;;;13.13;11.80;;;15.70;99.90;;;;;;5088843;28;20823;-67
2022/09/05 02:00:23;;;;;;;13.93;11.90;;;15.50;99.90;;;;;;5086847;28;20497;-67
2022/09/05 02:03:00;;;;;;;18.60;11.77;;;15.30;99.90;;;;;;5087430;28;20465;-68
2022/09/05 02:05:39;;;;;;;11.50;10.40;;;15.30;99.90;;;;;;5091127;28;20915;-67
2022/09/05 02:08:20;;;;;;;12.90;11.50;;;15.30;99.90;;;;;;5083531;28;20872;-68
2022/09/05 02:11:04;;;;;;;11.50;10.50;;;15.30;99.90;;;;;;5084540;28;20459;-68
2022/09/05 02:13:47;;;;;;;11.57;10.47;;;15.30;99.90;;;;;;5077875;28;20463;-68
2022/09/05 02:16:24;;;;;;;11.53;10.43;;;15.20;99.90;;;;;;5082676;28;20485;-67
2022/09/05 02:18:58;;;;;;;20.60;14.60;;;15.10;99.90;;;;;;5078496;28;20470;-67
2022/09/05 02:21:37;;;;;;;13.87;11.07;;;15.10;99.90;;;;;;5086927;28;20455;-68
2022/09/05 02:24:12;;;;;;;22.80;12.73;;;15.00;99.90;;;;;;5089565;28;20481;-68
2022/09/05 02:26:50;;;;;;;12.37;10.70;;;15.00;99.90;;;;;;5088856;28;20461;-68
2022/09/05 02:29:22;;;;;;;25.43;11.67;;;15.00;99.90;;;;;;5077042;28;20473;-67
2022/09/05 02:31:55;;;;;;;12.13;11.03;;;15.00;99.90;;;;;;5078302;28;20487;-68
2022/09/05 02:34:30;;;;;;;11.67;10.63;;;15.00;99.90;;;;;;5078395;28;20461;-67
2022/09/05 02:37:07;;;;;;;12.40;11.37;;;15.00;99.90;;;;;;5081955;28;20473;-67
2022/09/05 02:39:40;;;;;;;14.43;11.17;;;14.90;99.90;;;;;;5085106;28;20960;-67
2022/09/05 02:42:17;;;;;;;17.97;11.87;;;14.90;99.90;;;;;;5085173;28;20462;-68
2022/09/05 02:44:58;;;;;;;13.43;11.53;;;14.90;99.90;;;;;;5072938;28;20463;-67
2022/09/05 02:47:33;;;;;;;14.50;11.87;;;14.80;99.90;;;;;;5081890;28;20470;-67
2022/09/05 02:50:17;;;;;;;15.23;12.00;;;14.70;99.90;;;;;;5080781;28;20458;-67
2022/09/05 02:52:46;;;;;;;12.77;11.50;;;14.70;99.90;;;;;;5078999;28;21259;-67
2022/09/05 02:55:23;;;;;;;14.63;11.47;;;14.60;99.90;;;;;;5081213;28;20462;-67
2022/09/05 02:58:04;;;;;;;12.80;11.10;;;14.60;99.90;;;;;;5088403;28;20459;-67
2022/09/05 03:00:39;;;;;;;12.30;11.10;;;14.50;99.90;;;;;;5084458;28;20579;-67
2022/09/05 03:03:26;;;;;;;12.20;11.10;;;14.50;99.90;;;;;;5087832;28;20540;-67
2022/09/05 03:06:01;;;;;;;18.77;12.00;;;14.50;99.90;;;;;;5087631;28;20465;-67
2022/09/05 03:08:49;;;;;;;12.47;11.33;;;14.40;99.90;;;;;;5088723;28;20966;-68
2022/09/05 03:11:51;;;;;;;12.13;11.10;;;14.40;99.90;;;;;;5084735;28;20470;-67
2022/09/05 03:15:05;;;;;;;16.13;11.50;;;14.40;99.90;;;;;;5077166;28;20466;-67
2022/09/05 03:18:11;;;;;;;13.73;12.37;;;14.40;99.90;;;;;;5088456;28;20480;-68
2022/09/05 03:21:18;;;;;;;11.57;10.77;;;14.30;99.90;;;;;;5065892;28;20465;-67
2022/09/05 03:24:18;;;;;;;15.40;11.67;;;14.30;99.90;;;;;;5042439;28;20987;-67
2022/09/05 03:27:09;;;;;;;20.00;11.87;;;14.20;99.90;;;;;;5082366;28;20859;-67
2022/09/05 03:30:02;;;;;;;14.53;12.77;;;14.20;99.90;;;;;;5083643;28;20469;-68
2022/09/05 03:33:07;;;;;;;14.20;12.30;;;14.20;99.90;;;;;;5074615;28;21031;-66
2022/09/05 03:36:04;;;;;;;12.03;11.03;;;14.30;99.90;;;;;;5080831;28;20450;-68
2022/09/05 03:39:09;;;;;;;13.93;12.63;;;14.20;99.90;;;;;;5081707;28;20566;-67
2022/09/05 03:42:12;;;;;;;19.30;12.57;;;14.10;99.90;;;;;;5047871;28;20830;-67
2022/09/05 03:44:52;;;;;;;12.50;11.50;;;14.10;99.90;;;;;;5026011;28;20457;-67
2022/09/05 03:47:55;;;;;;;13.40;12.20;;;14.00;99.90;;;;;;5080739;28;20465;-66
2022/09/05 03:50:34;;;;;;;15.43;12.80;;;13.90;99.90;;;;;;5075992;28;20465;-67
2022/09/05 03:53:42;;;;;;;17.07;12.00;;;13.90;99.90;;;;;;5082490;28;20493;-67
2022/09/05 03:56:37;;;;;;;14.97;12.57;;;13.90;99.90;;;;;;5077363;28;20473;-67
2022/09/05 03:59:51;;;;;;;12.67;11.57;;;13.80;99.90;;;;;;5084734;28;20463;-67
2022/09/05 04:02:26;;;;;;;12.97;11.70;;;13.80;99.90;;;;;;5080145;28;20791;-66
2022/09/05 04:05:02;;;;;;;13.30;12.20;;;13.80;99.90;;;;;;5080043;28;20450;-67
2022/09/05 04:07:32;;;;;;;14.20;12.60;;;13.90;99.90;;;;;;5047467;28;21109;-68
2022/09/05 04:10:04;;;;;;;13.70;12.30;;;13.90;99.90;;;;;;5044204;28;20823;-67
2022/09/05 04:12:36;;;;;;;12.90;11.67;;;13.90;99.90;;;;;;5045478;28;20481;-68
2022/09/05 04:15:07;;;;;;;16.53;12.13;;;14.00;99.90;;;;;;5044779;28;20594;-67
2022/09/05 04:17:42;;;;;;;12.00;11.10;;;14.00;99.90;;;;;;5026848;28;20469;-66
2022/09/05 04:20:15;;;;;;;14.07;12.20;;;14.10;99.90;;;;;;5030603;28;20493;-68
2022/09/05 04:23:07;;;;;;;13.23;12.13;;;14.10;99.90;;;;;;5030118;28;21390;-68
2022/09/05 04:25:45;;;;;;;15.47;12.23;;;14.00;99.90;;;;;;5029021;28;20969;-67
2022/09/05 04:28:22;;;;;;;12.50;11.30;;;14.00;99.90;;;;;;5028165;28;20474;-69
2022/09/05 04:30:55;;;;;;;12.63;11.70;;;14.00;99.90;;;;;;5028121;28;20459;-67
2022/09/05 04:33:28;;;;;;;13.00;11.90;;;14.10;99.90;;;;;;5029073;28;20497;-69
2022/09/05 04:36:04;;;;;;;12.40;11.50;;;14.10;99.90;;;;;;5032529;28;20450;-67
2022/09/05 04:38:36;;;;;;;12.13;10.90;;;14.30;99.90;;;;;;5056996;28;20466;-68
2022/09/05 04:41:08;;;;;;;13.60;12.53;;;14.30;99.90;;;;;;5061439;28;20835;-67
2022/09/05 04:43:39;;;;;;;13.33;12.00;;;14.30;99.90;;;;;;5053843;28;20470;-68
2022/09/05 04:46:14;;;;;;;13.43;12.47;;;14.30;99.90;;;;;;5028326;28;20463;-68
2022/09/05 04:48:49;;;;;;;12.77;11.63;;;14.40;99.90;;;;;;5028081;28;20498;-68
2022/09/05 04:51:54;;;;;;;12.70;11.80;;;14.50;99.90;;;;;;5029450;28;20609;-68
2022/09/05 04:54:28;;;;;;;13.63;11.93;;;14.50;99.90;;;;;;5029760;28;20634;-69
2022/09/05 04:56:59;;;;;;;12.23;11.43;;;14.60;99.90;;;;;;5029115;28;20468;-68
2022/09/05 04:59:31;;;;;;;17.43;12.13;;;14.70;99.90;;;;;;5030036;28;20987;-67
2022/09/05 05:02:00;;;;;;;14.47;13.07;;;14.70;99.90;;;;;;5030261;28;20492;-67
2022/09/05 05:04:30;;;;;;;13.57;12.53;;;14.70;99.90;;;;;;5029116;28;20495;-67
2022/09/05 05:07:05;;;;;;;15.47;12.73;;;14.80;99.90;;;;;;5029308;28;20480;-68
2022/09/05 05:09:42;;;;;;;12.83;11.50;;;14.90;99.90;;;;;;5028032;28;20463;-68
2022/09/05 05:12:16;;;;;;;24.80;12.97;;;14.90;99.90;;;;;;5025886;28;20475;-67
2022/09/05 05:14:48;;;;;;;13.23;12.33;;;15.00;99.90;;;;;;5028209;28;20455;-67
2022/09/05 05:17:25;;;;;;;14.40;13.33;;;15.00;99.90;;;;;;5047725;28;20511;-68
2022/09/05 05:20:01;;;;;;;13.70;12.80;;;15.00;99.90;;;;;;5048646;28;20478;-67
2022/09/05 05:22:28;;;;;;;16.57;12.50;;;15.10;99.90;;;;;;5048747;28;20466;-68
2022/09/05 05:24:57;;;;;;;16.33;14.00;;;15.20;99.90;;;;;;5048764;28;20454;-67
2022/09/05 05:27:27;;;;;;;17.47;14.50;;;15.20;99.90;;;;;;5047046;28;20981;-67
2022/09/05 05:29:59;;;;;;;17.40;13.10;;;15.30;99.90;;;;;;5046446;28;20466;-67
2022/09/05 05:32:30;;;;;;;29.33;13.93;;;15.30;99.90;;;;;;5047638;28;20490;-67
2022/09/05 05:35:03;;;;;;;14.47;13.37;;;15.40;99.90;;;;;;5047538;28;20465;-67
2022/09/05 05:37:33;;;;;;;18.33;13.60;;;15.40;99.90;;;;;;5070504;28;20985;-67
2022/09/05 05:40:07;;;;;;;20.20;15.00;;;15.50;99.90;;;;;;5074566;28;20469;-67
2022/09/05 05:42:36;;;;;;;16.60;13.83;;;15.60;99.90;;;;;;5049135;28;20535;-68
2022/09/05 05:45:06;;;;;;;15.20;13.60;;;15.70;99.90;;;;;;5048085;28;20474;-68
2022/09/05 05:47:37;;;;;;;21.60;15.30;;;15.70;99.90;;;;;;5046897;28;21070;-68
2022/09/05 05:50:15;;;;;;;14.47;13.00;;;15.80;99.90;;;;;;5047672;28;20470;-68
2022/09/05 05:53:16;;;;;;;14.83;13.37;;;15.80;99.90;;;;;;5045509;28;20548;-68
2022/09/05 05:56:02;;;;;;;15.27;13.67;;;16.00;99.90;;;;;;5046627;28;20465;-67
2022/09/05 05:58:49;;;;;;;14.67;13.27;;;16.10;99.90;;;;;;5045950;28;20525;-68
2022/09/05 06:02:09;;;;;;;15.50;13.97;;;16.20;99.90;;;;;;5047188;28;21132;-68
2022/09/05 06:05:13;;;;;;;15.67;13.90;;;16.40;99.90;;;;;;5049008;28;20606;-68
2022/09/05 06:07:51;;;;;;;14.90;13.73;;;16.60;99.90;;;;;;5042973;28;21023;-68
2022/09/05 06:10:40;;;;;;;19.43;14.50;;;16.70;99.90;;;;;;5044864;28;21015;-67
2022/09/05 06:13:40;;;;;;;15.93;14.63;;;16.80;99.90;;;;;;5044711;28;20500;-68
2022/09/05 06:16:43;;;;;;;38.63;16.60;;;16.90;99.90;;;;;;5012856;28;20977;-67
2022/09/05 06:19:52;;;;;;;16.43;14.70;;;17.10;99.90;;;;;;5027386;28;20474;-68
2022/09/05 06:22:58;;;;;;;15.53;14.23;;;17.20;99.90;;;;;;5048624;28;20462;-68
2022/09/05 06:25:48;;;;;;;19.67;14.33;;;17.40;99.90;;;;;;5048811;28;20462;-68
2022/09/05 06:28:22;;;;;;;16.73;15.10;;;17.50;99.90;;;;;;5047174;28;20493;-68
2022/09/05 06:31:03;;;;;;;32.00;16.20;;;17.70;99.90;;;;;;5046042;28;20565;-68
2022/09/05 06:33:46;;;;;;;20.10;15.63;;;17.80;99.90;;;;;;5047572;28;21103;-68
2022/09/05 06:36:25;;;;;;;32.33;16.00;;;18.00;99.90;;;;;;5048341;28;20462;-69
2022/09/05 06:39:04;;;;;;;19.00;15.53;;;18.20;99.90;;;;;;5048868;28;20742;-69
2022/09/05 06:41:41;;;;;;;18.27;16.27;;;18.30;99.90;;;;;;5044776;28;20467;-68
2022/09/05 06:44:35;;;;;;;24.47;18.20;;;18.50;99.90;;;;;;5046126;28;20976;-68
2022/09/05 06:47:06;;;;;;;22.27;16.90;;;18.60;99.90;;;;;;5047424;28;21012;-67
2022/09/05 06:49:48;;;;;;;18.37;16.50;;;18.80;99.90;;;;;;5060822;28;21272;-67
2022/09/05 06:52:34;;;;;;;18.60;16.70;;;19.00;99.90;;;;;;5076637;28;20521;-68
2022/09/05 06:55:34;;;;;;;18.43;16.73;;;19.20;99.90;;;;;;5073454;28;20553;-68
2022/09/05 06:58:53;;;;;;;19.50;17.70;;;19.50;99.90;;;;;;5045925;28;20455;-68
2022/09/05 07:01:26;;;;;;;19.30;17.07;;;19.60;99.90;;;;;;4989059;28;20481;-67
2022/09/05 07:04:12;;;;;;;20.53;17.10;;;19.80;99.90;;;;;;5069422;28;20463;-68
2022/09/05 07:06:54;;;;;;;27.40;17.40;;;19.90;99.90;;;;;;5066012;28;20835;-69
2022/09/05 07:09:27;;;;;;;18.57;17.10;;;20.10;99.90;;;;;;5046608;28;20842;-68
2022/09/05 07:12:09;;;;;;;20.07;16.93;;;20.20;99.90;;;;;;5049133;28;20558;-68
2022/09/05 07:14:44;;;;;;;17.60;16.30;;;20.40;99.90;;;;;;5048291;28;20485;-68
2022/09/05 07:17:16;;;;;;;24.97;17.73;;;20.50;99.90;;;;;;5029470;28;20498;-67
2022/09/05 07:19:51;;;;;;;26.23;16.90;;;20.60;99.90;;;;;;5027061;28;20467;-68
2022/09/05 07:22:31;;;;;;;19.50;17.53;;;20.70;99.90;;;;;;5026996;28;20532;-67
2022/09/05 07:25:02;;;;;;;27.53;17.97;;;20.80;99.90;;;;;;5029503;28;20887;-68
2022/09/05 07:27:34;;;;;;;33.67;18.80;;;20.80;99.90;;;;;;5029197;28;20459;-69
2022/09/05 07:30:05;;;;;;;28.60;17.63;;;21.00;99.90;;;;;;5027638;28;20463;-68
2022/09/05 07:32:38;;;;;;;27.10;17.40;;;21.10;99.90;;;;;;5032017;28;20467;-68
2022/09/05 07:35:07;;;;;;;22.03;17.23;;;21.20;99.90;;;;;;5055021;28;20470;-67
2022/09/05 07:37:40;;;;;;;19.13;17.20;;;21.40;99.90;;;;;;5052215;28;20886;-68
2022/09/05 07:40:13;;;;;;;19.53;17.53;;;21.60;99.90;;;;;;5040799;28;21198;-69
2022/09/05 07:42:43;;;;;;;22.00;17.87;;;21.70;99.90;;;;;;5035356;28;20536;-68
2022/09/05 07:45:18;;;;;;;25.53;18.50;;;21.90;99.90;;;;;;5051927;28;20538;-69
2022/09/05 07:47:55;;;;;;;24.13;17.87;;;22.00;99.90;;;;;;5038128;28;20570;-69
2022/09/05 07:50:22;;;;;;;22.73;17.53;;;22.10;99.90;;;;;;5026882;28;21365;-68
2022/09/05 07:52:50;;;;;;;19.70;17.87;;;22.20;99.90;;;;;;5029311;28;20464;-69
2022/09/05 07:55:25;;;;;;;19.27;17.23;;;22.30;99.90;;;;;;5031008;28;20458;-68
2022/09/05 07:57:54;;;;;;;20.60;18.57;;;22.50;99.90;;;;;;5031737;28;20463;-69
2022/09/05 08:00:25;;;;;;;53.77;19.03;;;22.60;99.90;;;;;;5031420;28;20477;-68
2022/09/05 08:02:52;;;;;;;26.20;17.50;;;22.70;99.90;;;;;;5030161;28;20475;-69
2022/09/05 08:05:21;;;;;;;24.37;16.87;;;22.70;99.90;;;;;;5028162;28;20981;-69
2022/09/05 08:07:51;;;;;;;22.83;18.40;;;23.00;99.90;;;;;;5029270;28;20472;-68
2022/09/05 08:10:22;;;;;;;19.63;17.43;;;23.10;99.90;;;;;;5030816;28;20473;-69
2022/09/05 08:12:55;;;;;;;24.80;18.10;;;23.30;99.90;;;;;;5028846;28;20470;-69
2022/09/05 08:15:26;;;;;;;36.53;18.03;;;23.60;99.90;;;;;;5029568;28;21028;-68
2022/09/05 08:18:04;;;;;;;29.50;18.20;;;23.70;99.90;;;;;;5031690;28;20489;-69
2022/09/05 08:20:35;;;;;;;22.40;17.57;;;23.80;99.90;;;;;;5030354;28;20541;-67
2022/09/05 08:23:10;;;;;;;18.20;16.60;;;24.00;99.90;;;;;;5030216;28;20960;-67
2022/09/05 08:25:39;;;;;;;20.43;18.30;;;24.20;99.90;;;;;;5031879;28;21052;-67
2022/09/05 08:28:18;;;;;;;21.90;18.00;;;24.40;99.90;;;;;;5030387;28;20546;-67
2022/09/05 08:30:52;;;;;;;19.10;16.97;;;24.50;99.90;;;;;;5030139;28;21301;-67
2022/09/05 08:33:25;;;;;;;19.20;16.83;;;24.70;99.90;;;;;;5031438;28;20487;-67
2022/09/05 08:35:55;;;;;;;23.93;17.33;;;25.00;99.90;;;;;;5031145;28;20463;-68
2022/09/05 08:38:23;;;;;;;18.83;17.13;;;25.10;99.90;;;;;;5031452;28;20456;-68
2022/09/05 08:40:59;;;;;;;19.10;17.30;;;25.30;99.90;;;;;;5030548;28;20829;-68
2022/09/05 08:43:34;;;;;;;18.40;16.50;;;25.40;99.90;;;;;;5036043;28;20474;-67
2022/09/05 08:46:06;;;;;;;18.40;16.57;;;25.40;99.90;;;;;;5051792;28;20473;-68
2022/09/05 08:48:51;;;;;;;22.60;16.77;;;25.70;99.90;;;;;;5026235;28;20824;-68
2022/09/05 08:51:33;;;;;;;21.33;16.50;;;25.60;99.90;;;;;;5030340;28;20467;-69
2022/09/05 08:54:15;;;;;;;18.73;17.27;;;25.50;99.90;;;;;;5036690;28;20888;-68
2022/09/05 08:56:54;;;;;;;34.03;17.50;;;25.70;99.90;;;;;;5057866;28;20471;-68
2022/09/05 08:59:34;;;;;;;25.60;18.10;;;25.90;99.90;;;;;;5049299;28;21044;-68
2022/09/05 09:02:39;;;;;;;23.20;17.10;;;26.10;99.90;;;;;;5028843;28;20483;-68
2022/09/05 09:05:13;;;;;;;19.00;17.10;;;26.20;99.90;;;;;;4987001;28;20460;-69
2022/09/05 09:07:51;;;;;;;19.50;17.53;;;26.30;99.90;;;;;;5029431;28;20981;-68
2022/09/05 09:10:28;;;;;;;19.20;17.60;;;26.70;99.90;;;;;;5029731;28;20462;-68
2022/09/05 09:13:18;;;;;;;18.23;16.50;;;27.10;99.90;;;;;;5029844;28;20476;-68
2022/09/05 09:15:52;;;;;;;19.17;17.27;;;27.90;99.90;;;;;;5038954;28;20498;-67
2022/09/05 09:18:27;;;;;;;18.27;16.70;;;28.90;96.20;;;;;;5051439;28;20953;-68
2022/09/05 09:20:58;;;;;;;19.50;17.73;;;29.70;93.90;;;;;;5050701;28;20693;-70
2022/09/05 09:23:51;;;;;;;31.20;17.50;;;30.50;91.50;;;;;;5047434;28;20462;-69
2022/09/05 09:26:22;;;;;;;19.63;17.70;;;31.40;87.10;;;;;;5030386;28;20465;-69
2022/09/05 09:28:53;;;;;;;19.13;17.33;;;31.80;80.80;;;;;;5050690;28;20462;-69
2022/09/05 09:31:49;;;;;;;19.13;17.23;;;32.30;76.10;;;;;;5050060;28;20553;-69
2022/09/05 09:34:44;;;;;;;18.17;16.57;;;32.20;72.30;;;;;;5049372;28;20502;-69
2022/09/05 09:37:22;;;;;;;19.53;17.30;;;32.10;69.10;;;;;;5050439;28;21480;-68
2022/09/05 09:40:32;;;;;;;27.20;17.53;;;32.80;68.00;;;;;;5050726;28;20466;-69
2022/09/05 09:43:05;;;;;;;33.20;17.50;;;33.20;62.60;;;;;;4993484;28;20491;-69
2022/09/05 09:45:53;;;;;;;18.77;17.30;;;33.60;59.30;;;;;;5036511;28;20525;-69
2022/09/05 09:48:57;;;;;;;17.83;16.83;;;33.80;55.90;;;;;;5046580;28;20565;-69
2022/09/05 09:51:47;;;;;;;19.23;17.40;;;33.90;53.80;;;;;;5048923;28;20459;-69
2022/09/05 09:54:46;;;;;;;23.97;17.60;;;34.20;52.40;;;;;;5047869;28;20481;-70
2022/09/05 09:57:47;;;;;;;19.83;16.50;;;35.30;51.60;;;;;;5014902;28;20593;-69
2022/09/05 10:00:20;;;;;;;18.93;16.93;;;35.60;49.50;;;;;;5047639;28;21171;-70
2022/09/05 10:03:23;;;;;;;18.63;16.80;;;35.80;47.50;;;;;;5048756;28;20467;-69
2022/09/05 10:06:16;;;;;;;16.93;15.63;;;36.30;45.80;;;;;;5016993;28;20595;-69
2022/09/05 10:09:06;;;;;;;17.80;16.50;;;35.90;43.50;;;;;;5048853;28;20981;-69
2022/09/05 10:11:56;;;;;;;27.90;17.10;;;36.20;43.20;;;;;;5048886;28;20965;-69
2022/09/05 10:14:57;;;;;;;17.23;16.00;;;36.30;42.30;;;;;;5049090;28;20486;-70
2022/09/05 10:17:55;;;;;;;16.33;15.53;;;36.30;40.80;;;;;;5047154;28;20822;-69
2022/09/05 10:20:34;;;;;;;17.63;16.63;;;36.60;38.00;;;;;;5049579;28;20470;-69
2022/09/05 10:23:37;;;;;;;16.53;15.73;;;36.90;38.10;;;;;;5048771;28;20462;-70
2022/09/05 10:26:45;;;;;;;17.27;16.13;;;36.90;36.30;;;;;;5047455;28;20543;-69
2022/09/05 10:29:29;;;;;;;16.87;15.90;;;35.70;37.20;;;;;;5046577;28;20462;-68
2022/09/05 10:32:05;;;;;;;17.03;16.23;;;35.40;35.50;;;;;;5046151;28;20458;-68
2022/09/05 10:34:45;;;;;;;17.10;15.90;;;34.80;36.00;;;;;;5047120;28;20486;-68
2022/09/05 10:37:14;;;;;;;16.50;15.60;;;34.20;36.80;;;;;;5048202;28;20478;-69
2022/09/05 10:39:44;;;;;;;16.40;15.40;;;34.20;36.40;;;;;;5046318;28;20467;-69
2022/09/05 10:42:17;;;;;;;15.60;14.80;;;34.60;35.90;;;;;;5047492;28;20489;-69
2022/09/05 10:44:52;;;;;;;16.20;15.20;;;34.70;36.20;;;;;;5046981;28;20827;-69
2022/09/05 10:47:34;;;;;;;16.50;15.63;;;35.30;37.30;;;;;;5046726;28;20469;-69
2022/09/05 10:50:08;;;;;;;17.07;16.07;;;35.80;35.30;;;;;;5045373;28;20516;-70
2022/09/05 10:52:37;;;;;;;16.43;15.30;;;35.70;34.30;;;;;;5046921;28;22093;-69
2022/09/05 10:55:17;;;;;;;15.07;14.37;;;36.20;34.40;;;;;;5046886;28;20497;-69
2022/09/05 10:57:59;;;;;;;16.47;15.57;;;36.80;33.00;;;;;;5046186;28;20474;-68
2022/09/05 11:00:57;;;;;;;16.00;15.20;;;36.40;33.50;;;;;;5046293;28;20493;-69
2022/09/05 11:03:36;;;;;;;15.83;15.03;;;35.50;33.40;;;;;;5046628;28;20971;-68
2022/09/05 11:06:11;;;;;;;17.17;16.10;;;36.20;33.60;;;;;;5047383;28;20723;-69
2022/09/05 11:08:46;;;;;;;17.33;16.33;;;36.70;32.10;;;;;;5047372;28;21004;-69
2022/09/05 11:11:17;;;;;;;16.70;15.80;;;36.40;32.90;;;;;;5046099;28;20501;-69
2022/09/05 11:13:48;;;;;;;16.67;15.87;;;35.70;31.60;;;;;;5046626;28;20467;-68
2022/09/05 11:16:25;;;;;;;17.23;15.90;;;35.90;31.40;;;;;;5033654;28;21278;-69
2022/09/05 11:18:57;;;;;;;16.57;15.67;;;36.40;31.60;;;;;;5025256;28;20538;-69
2022/09/05 11:21:42;;;;;;;15.57;14.97;;;36.40;31.40;;;;;;5026034;28;20970;-69
2022/09/05 11:24:23;;;;;;;16.43;15.63;;;36.50;30.70;;;;;;5035530;28;20463;-68
2022/09/05 11:26:58;;;;;;;15.70;14.90;;;36.50;30.40;;;;;;5055478;28;20807;-67
2022/09/05 11:29:35;;;;;;;16.50;15.70;;;36.70;31.00;;;;;;5056981;28;20463;-68
2022/09/05 11:32:25;;;;;;;17.37;16.13;;;36.60;30.30;;;;;;5038490;28;21474;-68
2022/09/05 11:35:18;;;;;;;15.73;14.93;;;37.00;29.90;;;;;;5028220;28;20878;-69
2022/09/05 11:38:19;;;;;;;16.50;15.60;;;37.50;29.00;;;;;;5026742;28;20475;-69
2022/09/05 11:41:25;;;;;;;16.10;15.20;;;37.80;28.90;;;;;;5027595;28;20839;-68
2022/09/05 11:44:14;;;;;;;15.63;14.87;;;38.30;29.20;;;;;;4954639;28;20534;-68
2022/09/05 11:46:52;;;;;;;16.77;15.77;;;38.70;27.80;;;;;;4951606;28;20474;-68
2022/09/05 11:49:56;;;;;;;16.07;15.30;;;39.10;27.40;;;;;;5003643;28;21058;-69
2022/09/05 11:53:13;;;;;;;15.70;15.00;;;39.20;27.60;;;;;;5027602;28;20470;-68
2022/09/05 11:56:14;;;;;;;15.53;14.73;;;38.60;26.70;;;;;;5027723;28;20517;-69
2022/09/05 11:59:11;;;;;;;16.47;15.37;;;38.70;26.40;;;;;;5014189;28;20451;-68
2022/09/05 12:01:50;;;;;;;14.93;14.33;;;39.20;26.10;;;;;;5026118;28;20475;-69
2022/09/05 12:04:42;;;;;;;15.30;14.60;;;39.70;26.00;;;;;;5021876;28;21041;-69
2022/09/05 12:07:39;;;;;;;15.07;14.27;;;40.10;25.70;;;;;;5024620;28;20490;-70
2022/09/05 12:10:21;;;;;;;15.33;14.50;;;40.10;25.20;;;;;;5025459;28;20517;-69
2022/09/05 12:12:59;;;;;;;16.27;15.10;;;40.50;25.20;;;;;;5026744;28;20526;-70
2022/09/05 12:15:28;;;;;;;15.63;14.73;;;40.80;25.00;;;;;;5025419;28;20500;-69
2022/09/05 12:18:15;;;;;;;15.50;14.37;;;41.00;24.60;;;;;;5026310;28;20468;-68
2022/09/05 12:20:54;;;;;;;16.07;15.23;;;40.50;25.10;;;;;;5026626;28;20484;-68
2022/09/05 12:23:32;;;;;;;15.67;14.90;;;39.90;25.00;;;;;;5026019;28;20460;-69
2022/09/05 12:26:03;;;;;;;15.40;14.53;;;39.60;24.10;;;;;;5026011;28;20493;-69
2022/09/05 12:28:37;;;;;;;15.20;13.97;;;40.00;24.60;;;;;;5027238;28;20463;-69
2022/09/05 12:31:16;;;;;;;14.63;13.63;;;40.60;24.90;;;;;;5026616;28;20512;-69
2022/09/05 12:33:47;;;;;;;15.83;15.03;;;41.10;24.10;;;;;;5026586;28;20463;-68
2022/09/05 12:36:18;;;;;;;14.10;13.40;;;41.70;23.20;;;;;;5027662;28;20498;-69
2022/09/05 12:38:51;;;;;;;15.30;14.20;;;41.90;23.00;;;;;;5027595;28;20467;-68
2022/09/05 12:41:20;;;;;;;15.10;14.20;;;42.30;22.80;;;;;;5027460;28;20463;-68
2022/09/05 12:44:14;;;;;;;14.10;13.40;;;43.00;22.50;;;;;;5028520;28;20490;-69
2022/09/05 12:46:53;;;;;;;14.87;14.17;;;43.10;21.50;;;;;;5039886;28;20467;-68
2022/09/05 12:49:31;;;;;;;14.90;14.30;;;43.20;21.60;;;;;;5029715;28;20492;-70
2022/09/05 12:52:03;;;;;;;15.60;14.70;;;42.60;21.10;;;;;;5029675;28;21050;-69
2022/09/05 12:54:35;;;;;;;14.83;13.77;;;42.30;21.50;;;;;;5029991;28;20562;-68
2022/09/05 12:57:10;;;;;;;13.77;13.17;;;41.50;21.50;;;;;;5030585;28;20459;-69
2022/09/05 12:59:39;;;;;;;16.20;14.50;;;41.20;22.30;;;;;;5032333;28;20876;-69
2022/09/05 13:02:14;;;;;;;14.27;13.67;;;40.90;21.90;;;;;;5030698;28;20537;-69
2022/09/05 13:04:46;;;;;;;14.77;13.97;;;41.80;21.60;;;;;;5030510;28;20463;-68
2022/09/05 13:07:19;;;;;;;14.70;13.73;;;41.80;21.20;;;;;;5029333;28;20459;-69
2022/09/05 13:09:56;;;;;;;16.03;14.70;;;41.90;21.60;;;;;;5030892;28;20856;-69
2022/09/05 13:12:28;;;;;;;14.73;13.80;;;41.10;21.90;;;;;;5029188;28;20850;-69
2022/09/05 13:15:04;;;;;;;14.97;14.30;;;40.10;22.10;;;;;;5030980;28;20496;-70
2022/09/05 13:17:37;;;;;;;16.40;14.80;;;39.40;23.10;;;;;;5030656;28;20521;-70
2022/09/05 13:20:14;;;;;;;15.83;14.83;;;39.10;22.10;;;;;;5030800;28;20638;-70
2022/09/05 13:22:42;;;;;;;16.70;15.60;;;38.80;23.10;;;;;;5029213;28;20985;-70
2022/09/05 13:25:16;;;;;;;16.57;15.10;;;38.70;22.70;;;;;;5028010;28;21048;-69
2022/09/05 13:27:55;;;;;;;15.80;15.10;;;37.60;23.20;;;;;;5028082;28;20474;-69
2022/09/05 13:30:24;;;;;;;15.77;15.03;;;37.10;24.20;;;;;;5028888;28;21470;-70
2022/09/05 13:32:53;;;;;;;15.33;14.63;;;37.20;23.80;;;;;;5059361;28;20502;-68
2022/09/05 13:35:24;;;;;;;15.37;14.57;;;37.50;23.60;;;;;;5049552;28;20495;-69